地図

経路データ

SID SEASON NUMBER BASIN SUBBASIN NAME ISO_TIME NATURE LAT LON WMO_WIND WMO_PRES WMO_AGENCY TRACK_TYPE DIST2LAND LANDFALL IFLAG USA_AGENCY USA_ATCF_ID USA_LAT USA_LON USA_RECORD USA_STATUS USA_WIND USA_PRES USA_SSHS USA_R34_NE USA_R34_SE USA_R34_SW USA_R34_NW USA_R50_NE USA_R50_SE USA_R50_SW USA_R50_NW USA_R64_NE USA_R64_SE USA_R64_SW USA_R64_NW USA_POCI USA_ROCI USA_RMW USA_EYE TOKYO_LAT TOKYO_LON TOKYO_GRADE TOKYO_WIND TOKYO_PRES TOKYO_R50_DIR TOKYO_R50_LONG TOKYO_R50_SHORT TOKYO_R30_DIR TOKYO_R30_LONG TOKYO_R30_SHORT TOKYO_LAND CMA_LAT CMA_LON CMA_CAT CMA_WIND CMA_PRES HKO_LAT HKO_LON HKO_CAT HKO_WIND HKO_PRES NEWDELHI_LAT NEWDELHI_LON NEWDELHI_GRADE NEWDELHI_WIND NEWDELHI_PRES NEWDELHI_CI NEWDELHI_DP NEWDELHI_POCI REUNION_LAT REUNION_LON REUNION_TYPE REUNION_WIND REUNION_PRES REUNION_TNUM REUNION_CI REUNION_RMW REUNION_R34_NE REUNION_R34_SE REUNION_R34_SW REUNION_R34_NW REUNION_R50_NE REUNION_R50_SE REUNION_R50_SW REUNION_R50_NW REUNION_R64_NE REUNION_R64_SE REUNION_R64_SW REUNION_R64_NW BOM_LAT BOM_LON BOM_TYPE BOM_WIND BOM_PRES BOM_TNUM BOM_CI BOM_RMW BOM_R34_NE BOM_R34_SE BOM_R34_SW BOM_R34_NW BOM_R50_NE BOM_R50_SE BOM_R50_SW BOM_R50_NW BOM_R64_NE BOM_R64_SE BOM_R64_SW BOM_R64_NW BOM_ROCI BOM_POCI BOM_EYE BOM_POS_METHOD BOM_PRES_METHOD NADI_LAT NADI_LON NADI_CAT NADI_WIND NADI_PRES WELLINGTON_LAT WELLINGTON_LON WELLINGTON_WIND WELLINGTON_PRES DS824_LAT DS824_LON DS824_STAGE DS824_WIND DS824_PRES TD9636_LAT TD9636_LON TD9636_STAGE TD9636_WIND TD9636_PRES TD9635_LAT TD9635_LON TD9635_WIND TD9635_PRES TD9635_ROCI NEUMANN_LAT NEUMANN_LON NEUMANN_CLASS NEUMANN_WIND NEUMANN_PRES MLC_LAT MLC_LON MLC_CLASS MLC_WIND MLC_PRES USA_GUST BOM_GUST BOM_GUST_PER REUNION_GUST REUNION_GUST_PER USA_SEAHGT USA_SEARAD_NE USA_SEARAD_SE USA_SEARAD_SW USA_SEARAD_NW STORM_SPEED STORM_DIR
1987305N17283 1987 93 NA CS NOT_NAMED 1987-10-31 18:00:00 TS 16.5000 -77.5000 30 hurdat_atl main 138 105 O_____________ hurdat_atl AL141987 16.5000 -77.5000 TD 30 -1 14 316
1987305N17283 1987 93 NA CS NOT_NAMED 1987-10-31 21:00:00 TS 17.0153 -78.0143 main 105 79 P_____________ AL141987 17.0153 -78.0143 TD 30 -1 14 316
1987305N17283 1987 93 NA CS NOT_NAMED 1987-11-01 00:00:00 TS 17.5000 -78.5000 30 hurdat_atl main 79 61 O_____________ hurdat_atl AL141987 17.5000 -78.5000 TD 30 -1 13 317
1987305N17283 1987 93 NA CS NOT_NAMED 1987-11-01 03:00:00 TS 17.9424 -78.9303 main 62 62 P_____________ AL141987 17.9424 -78.9303 TD 30 -1 12 320
1987305N17283 1987 93 NA CS NOT_NAMED 1987-11-01 06:00:00 TS 18.4000 -79.3000 30 hurdat_atl main 97 97 O_____________ hurdat_atl AL141987 18.4000 -79.3000 TD 30 -1 12 327
1987305N17283 1987 93 NA CS NOT_NAMED 1987-11-01 09:00:00 TS 18.9724 -79.6299 main 152 152 P_____________ AL141987 18.9724 -79.6299 TD 30 -1 12 333
1987305N17283 1987 93 NA CS NOT_NAMED 1987-11-01 12:00:00 TS 19.5000 -79.9000 30 hurdat_atl main 208 200 O_____________ hurdat_atl AL141987 19.5000 -79.9000 TD 30 -1 10 332
1987305N17283 1987 93 NA CS NOT_NAMED 1987-11-01 15:00:00 TS 19.8674 -80.1302 main 200 181 P_____________ AL141987 19.8674 -80.1302 TD 30 -1 7 328
1987305N17283 1987 93 NA CS NOT_NAMED 1987-11-01 18:00:00 TS 20.1000 -80.3000 30 hurdat_atl main 181 170 O_____________ hurdat_atl AL141987 20.1000 -80.3000 TD 30 -1 4 323
1987305N17283 1987 93 NA CS NOT_NAMED 1987-11-01 21:00:00 TS 20.2149 -80.4077 main 172 164 P_____________ AL141987 20.2149 -80.4077 TD 27 -1 3 317
1987305N17283 1987 93 NA CS NOT_NAMED 1987-11-02 00:00:00 TS 20.3000 -80.5000 25 hurdat_atl main 164 147 O_____________ hurdat_atl AL141987 20.3000 -80.5000 TD 25 -1 3 321
1987305N17283 1987 93 NA CS NOT_NAMED 1987-11-02 03:00:00 TS 20.4850 -80.6425 main 147 139 P_____________ AL141987 20.4850 -80.6425 TD 25 -1 5 325
1987305N17283 1987 93 NA CS NOT_NAMED 1987-11-02 06:00:00 TS 20.7000 -80.8000 25 hurdat_atl main 139 126 O_____________ hurdat_atl AL141987 20.7000 -80.8000 TD 25 -1 5 326
1987305N17283 1987 93 NA CS NOT_NAMED 1987-11-02 09:00:00 TS 20.9075 -80.9500 main 124 101 P_____________ AL141987 20.9075 -80.9500 TD 25 -1 5 325
1987305N17283 1987 93 NA CS NOT_NAMED 1987-11-02 12:00:00 TS 21.1000 -81.1000 25 hurdat_atl main 101 89 O_____________ hurdat_atl AL141987 21.1000 -81.1000 TD 25 -1 4 318
1987305N17283 1987 93 NA CS NOT_NAMED 1987-11-02 15:00:00 TS 21.2125 -81.2428 main 89 70 P_____________ AL141987 21.2125 -81.2428 TD 25 -1 4 317
1987305N17283 1987 93 NA CS NOT_NAMED 1987-11-02 18:00:00 TS 21.4000 -81.4000 25 hurdat_atl main 70 39 O_____________ hurdat_atl AL141987 21.4000 -81.4000 TD 25 -1 7 331
1987305N17283 1987 93 NA CS NOT_NAMED 1987-11-02 21:00:00 TS 21.8050 -81.5924 main 39 0 P_____________ AL141987 21.8050 -81.5924 TD 25 -1 10 338
1987305N17283 1987 93 NA NA NOT_NAMED 1987-11-03 00:00:00 TS 22.3000 -81.8000 25 hurdat_atl main 0 0 O_____________ hurdat_atl AL141987 22.3000 -81.8000 TD 25 -1 10 340
1987305N17283 1987 93 NA NA NOT_NAMED 1987-11-03 03:00:00 TS 22.7574 -81.9778 main 0 0 P_____________ AL141987 22.7574 -81.9778 TD 25 -1 10 338
1987305N17283 1987 93 NA NA NOT_NAMED 1987-11-03 06:00:00 TS 23.2000 -82.2000 25 hurdat_atl main 11 11 O_____________ hurdat_atl AL141987 23.2000 -82.2000 TD 25 -1 10 329
1987305N17283 1987 93 NA NA NOT_NAMED 1987-11-03 09:00:00 TS 23.6000 -82.5276 main 55 55 P_____________ AL141987 23.6000 -82.5276 TD 25 -1 10 321
1987305N17283 1987 93 NA NA NOT_NAMED 1987-11-03 12:00:00 TS 24.0000 -82.9000 25 hurdat_atl main 108 108 O_____________ hurdat_atl AL141987 24.0000 -82.9000 TD 25 -1 11 321
1987305N17283 1987 93 NA GM NOT_NAMED 1987-11-03 15:00:00 TS 24.4501 -83.2798 main 175 175 P_____________ AL141987 24.4501 -83.2798 TD 25 -1 11 325
1987305N17283 1987 93 NA GM NOT_NAMED 1987-11-03 18:00:00 TS 24.9000 -83.6000 25 hurdat_atl main 221 215 O_____________ hurdat_atl AL141987 24.9000 -83.6000 TD 25 -1 10 329
1987305N17283 1987 93 NA GM NOT_NAMED 1987-11-03 21:00:00 TS 25.2924 -83.8324 main 219 201 P_____________ AL141987 25.2924 -83.8324 TD 25 -1 8 341
1987305N17283 1987 93 NA GM NOT_NAMED 1987-11-04 00:00:00 TS 25.7000 -83.9000 25 hurdat_atl main 201 163 O_____________ hurdat_atl AL141987 25.7000 -83.9000 TD 25 -1 9 4
1987305N17283 1987 93 NA GM NOT_NAMED 1987-11-04 03:00:00 TS 26.2000 -83.7605 main 163 111 P_____________ AL141987 26.2000 -83.7605 TD 25 -1 11 20
1987305N17283 1987 93 NA GM NOT_NAMED 1987-11-04 06:00:00 TS 26.7000 -83.5000 25 hurdat_atl main 111 72 O_____________ hurdat_atl AL141987 26.7000 -83.5000 TD 25 -1 10 25
1987305N17283 1987 93 NA GM NOT_NAMED 1987-11-04 09:00:00 TS 27.0997 -83.2942 main 72 37 P_____________ AL141987 27.0997 -83.2942 TD 22 -1 9 29
1987305N17283 1987 93 NA GM NOT_NAMED 1987-11-04 12:00:00 TS 27.5000 -83.0000 20 hurdat_atl main 37 0 O_____________ hurdat_atl AL141987 27.5000 -83.0000 TD 20 -1 11 37
1987305N17283 1987 93 NA GM NOT_NAMED 1987-11-04 15:00:00 TS 27.9757 -82.5490 main 0 0 P_____________ AL141987 27.9757 -82.5490 TD 20 -1 13 41
1987305N17283 1987 93 NA NA NOT_NAMED 1987-11-04 18:00:00 TS 28.5000 -82.0000 20 hurdat_atl main 0 O_____________ hurdat_atl AL141987 28.5000 -82.0000 TD 20 -1 14 43

IBTrACS Databaseについて

本データベースは、米国NOAAが公開する1842年以降の世界の熱帯低気圧のベストトラックデータアーカイブInternational Best Track Archive for Climate Stewardship (IBTrACS)を、ウェブで閲覧しやすい形式に変換したものです。

最終更新日:2021-10-21